sensor_id;sensor_type;location;lat;lon;timestamp;P1;durP1;ratioP1;P2;durP2;ratioP2
57567;SDS011;43403;51.948;5.922;2024-03-02T00:00:03;2.92;;;1.23;;
57567;SDS011;43403;51.948;5.922;2024-03-02T00:02:44;2.63;;;1.30;;
57567;SDS011;43403;51.948;5.922;2024-03-02T00:05:11;2.47;;;1.40;;
57567;SDS011;43403;51.948;5.922;2024-03-02T00:07:41;2.13;;;1.27;;
57567;SDS011;43403;51.948;5.922;2024-03-02T00:10:09;2.22;;;1.25;;
57567;SDS011;43403;51.948;5.922;2024-03-02T00:12:39;3.20;;;1.60;;
57567;SDS011;43403;51.948;5.922;2024-03-02T00:15:06;4.18;;;1.35;;
57567;SDS011;43403;51.948;5.922;2024-03-02T00:17:39;2.33;;;1.20;;
57567;SDS011;43403;51.948;5.922;2024-03-02T00:20:06;2.22;;;1.30;;
57567;SDS011;43403;51.948;5.922;2024-03-02T00:22:35;2.70;;;1.30;;
57567;SDS011;43403;51.948;5.922;2024-03-02T00:25:03;2.67;;;1.20;;
57567;SDS011;43403;51.948;5.922;2024-03-02T00:27:30;3.55;;;1.60;;
57567;SDS011;43403;51.948;5.922;2024-03-02T00:29:56;2.70;;;1.30;;
57567;SDS011;43403;51.948;5.922;2024-03-02T00:32:23;3.70;;;1.38;;
57567;SDS011;43403;51.948;5.922;2024-03-02T00:34:51;2.70;;;1.13;;
57567;SDS011;43403;51.948;5.922;2024-03-02T00:37:17;3.20;;;1.27;;
57567;SDS011;43403;51.948;5.922;2024-03-02T00:39:46;4.80;;;1.60;;
57567;SDS011;43403;51.948;5.922;2024-03-02T00:42:15;4.97;;;1.77;;
57567;SDS011;43403;51.948;5.922;2024-03-02T00:44:41;4.28;;;1.85;;
57567;SDS011;43403;51.948;5.922;2024-03-02T00:47:07;3.40;;;1.50;;
57567;SDS011;43403;51.948;5.922;2024-03-02T00:49:34;2.28;;;1.27;;
57567;SDS011;43403;51.948;5.922;2024-03-02T00:52:00;2.30;;;1.30;;
57567;SDS011;43403;51.948;5.922;2024-03-02T00:54:27;3.90;;;1.60;;
57567;SDS011;43403;51.948;5.922;2024-03-02T00:56:54;3.25;;;1.30;;
57567;SDS011;43403;51.948;5.922;2024-03-02T00:59:22;2.85;;;1.45;;
57567;SDS011;43403;51.948;5.922;2024-03-02T01:01:49;2.92;;;1.42;;
57567;SDS011;43403;51.948;5.922;2024-03-02T01:04:16;1.77;;;1.10;;
57567;SDS011;43403;51.948;5.922;2024-03-02T01:06:42;3.30;;;1.45;;
57567;SDS011;43403;51.948;5.922;2024-03-02T01:09:09;3.25;;;1.38;;
57567;SDS011;43403;51.948;5.922;2024-03-02T01:11:36;3.58;;;1.33;;
57567;SDS011;43403;51.948;5.922;2024-03-02T01:14:02;5.10;;;1.60;;
57567;SDS011;43403;51.948;5.922;2024-03-02T01:16:29;2.65;;;1.00;;
57567;SDS011;43403;51.948;5.922;2024-03-02T01:18:55;4.07;;;1.40;;
57567;SDS011;43403;51.948;5.922;2024-03-02T01:21:22;2.85;;;1.20;;
57567;SDS011;43403;51.948;5.922;2024-03-02T01:23:48;3.78;;;1.20;;
57567;SDS011;43403;51.948;5.922;2024-03-02T01:26:15;4.00;;;1.20;;
57567;SDS011;43403;51.948;5.922;2024-03-02T01:28:42;3.20;;;1.25;;
57567;SDS011;43403;51.948;5.922;2024-03-02T01:31:08;1.75;;;1.05;;
57567;SDS011;43403;51.948;5.922;2024-03-02T01:33:34;2.30;;;1.08;;
57567;SDS011;43403;51.948;5.922;2024-03-02T01:36:01;1.88;;;1.10;;
57567;SDS011;43403;51.948;5.922;2024-03-02T01:38:27;4.22;;;1.20;;
57567;SDS011;43403;51.948;5.922;2024-03-02T01:40:54;3.65;;;1.25;;
57567;SDS011;43403;51.948;5.922;2024-03-02T01:43:23;1.67;;;0.82;;
57567;SDS011;43403;51.948;5.922;2024-03-02T01:45:49;4.75;;;1.13;;
57567;SDS011;43403;51.948;5.922;2024-03-02T01:48:15;1.45;;;0.90;;
57567;SDS011;43403;51.948;5.922;2024-03-02T01:50:42;1.65;;;0.60;;
57567;SDS011;43403;51.948;5.922;2024-03-02T01:53:08;2.00;;;0.60;;
57567;SDS011;43403;51.948;5.922;2024-03-02T01:55:35;0.52;;;0.40;;
57567;SDS011;43403;51.948;5.922;2024-03-02T01:58:01;0.75;;;0.45;;
57567;SDS011;43403;51.948;5.922;2024-03-02T02:00:28;0.40;;;0.40;;
57567;SDS011;43403;51.948;5.922;2024-03-02T02:02:54;0.45;;;0.40;;
57567;SDS011;43403;51.948;5.922;2024-03-02T02:05:21;0.40;;;0.40;;
57567;SDS011;43403;51.948;5.922;2024-03-02T02:07:47;0.45;;;0.40;;
57567;SDS011;43403;51.948;5.922;2024-03-02T02:10:14;0.30;;;0.30;;
57567;SDS011;43403;51.948;5.922;2024-03-02T02:12:40;1.58;;;0.40;;
57567;SDS011;43403;51.948;5.922;2024-03-02T02:15:23;0.40;;;0.40;;
57567;SDS011;43403;51.948;5.922;2024-03-02T02:17:50;0.50;;;0.50;;
57567;SDS011;43403;51.948;5.922;2024-03-02T02:20:17;0.57;;;0.50;;
57567;SDS011;43403;51.948;5.922;2024-03-02T02:23:02;0.80;;;0.45;;
57567;SDS011;43403;51.948;5.922;2024-03-02T02:25:29;1.38;;;0.40;;
57567;SDS011;43403;51.948;5.922;2024-03-02T02:27:56;4.82;;;0.57;;
57567;SDS011;43403;51.948;5.922;2024-03-02T02:30:27;0.90;;;0.47;;
57567;SDS011;43403;51.948;5.922;2024-03-02T02:32:54;0.75;;;0.32;;
57567;SDS011;43403;51.948;5.922;2024-03-02T02:35:21;0.40;;;0.40;;
57567;SDS011;43403;51.948;5.922;2024-03-02T02:37:48;0.50;;;0.40;;
57567;SDS011;43403;51.948;5.922;2024-03-02T02:40:15;0.80;;;0.30;;
57567;SDS011;43403;51.948;5.922;2024-03-02T02:42:41;2.15;;;0.50;;
57567;SDS011;43403;51.948;5.922;2024-03-02T02:45:08;0.90;;;0.30;;
57567;SDS011;43403;51.948;5.922;2024-03-02T02:47:35;1.38;;;0.40;;
57567;SDS011;43403;51.948;5.922;2024-03-02T02:50:02;2.17;;;0.40;;
57567;SDS011;43403;51.948;5.922;2024-03-02T02:52:32;0.77;;;0.40;;
57567;SDS011;43403;51.948;5.922;2024-03-02T02:54:59;0.98;;;0.32;;
57567;SDS011;43403;51.948;5.922;2024-03-02T02:57:26;0.30;;;0.30;;
57567;SDS011;43403;51.948;5.922;2024-03-02T02:59:52;3.35;;;0.63;;
57567;SDS011;43403;51.948;5.922;2024-03-02T03:02:18;0.30;;;0.30;;
57567;SDS011;43403;51.948;5.922;2024-03-02T03:04:45;0.50;;;0.38;;
57567;SDS011;43403;51.948;5.922;2024-03-02T03:07:11;0.65;;;0.40;;
57567;SDS011;43403;51.948;5.922;2024-03-02T03:09:38;3.75;;;0.40;;
57567;SDS011;43403;51.948;5.922;2024-03-02T03:12:07;0.55;;;0.55;;
57567;SDS011;43403;51.948;5.922;2024-03-02T03:14:33;0.22;;;0.22;;
57567;SDS011;43403;51.948;5.922;2024-03-02T03:17:00;0.30;;;0.30;;
57567;SDS011;43403;51.948;5.922;2024-03-02T03:19:27;1.48;;;0.30;;
57567;SDS011;43403;51.948;5.922;2024-03-02T03:21:54;0.40;;;0.40;;
57567;SDS011;43403;51.948;5.922;2024-03-02T03:24:20;1.63;;;0.40;;
57567;SDS011;43403;51.948;5.922;2024-03-02T03:26:47;0.40;;;0.40;;
57567;SDS011;43403;51.948;5.922;2024-03-02T03:29:13;0.25;;;0.25;;
57567;SDS011;43403;51.948;5.922;2024-03-02T03:31:40;1.00;;;0.45;;
57567;SDS011;43403;51.948;5.922;2024-03-02T03:34:06;1.98;;;0.38;;
57567;SDS011;43403;51.948;5.922;2024-03-02T03:36:33;0.40;;;0.30;;
57567;SDS011;43403;51.948;5.922;2024-03-02T03:38:59;0.65;;;0.40;;
57567;SDS011;43403;51.948;5.922;2024-03-02T03:43:54;0.43;;;0.40;;
57567;SDS011;43403;51.948;5.922;2024-03-02T03:46:21;0.63;;;0.38;;
57567;SDS011;43403;51.948;5.922;2024-03-02T03:48:48;2.78;;;0.50;;
57567;SDS011;43403;51.948;5.922;2024-03-02T03:51:14;1.33;;;0.50;;
57567;SDS011;43403;51.948;5.922;2024-03-02T03:53:41;0.55;;;0.45;;
57567;SDS011;43403;51.948;5.922;2024-03-02T03:56:07;0.45;;;0.43;;
57567;SDS011;43403;51.948;5.922;2024-03-02T03:58:34;1.65;;;0.40;;
57567;SDS011;43403;51.948;5.922;2024-03-02T04:01:00;0.40;;;0.40;;
57567;SDS011;43403;51.948;5.922;2024-03-02T04:03:26;0.40;;;0.40;;
57567;SDS011;43403;51.948;5.922;2024-03-02T04:05:53;1.88;;;0.70;;
57567;SDS011;43403;51.948;5.922;2024-03-02T04:08:19;1.75;;;0.40;;
57567;SDS011;43403;51.948;5.922;2024-03-02T04:10:46;0.47;;;0.45;;
57567;SDS011;43403;51.948;5.922;2024-03-02T04:13:12;0.57;;;0.30;;
57567;SDS011;43403;51.948;5.922;2024-03-02T04:15:39;0.73;;;0.43;;
57567;SDS011;43403;51.948;5.922;2024-03-02T04:18:06;1.17;;;0.50;;
57567;SDS011;43403;51.948;5.922;2024-03-02T04:20:33;2.10;;;0.40;;
57567;SDS011;43403;51.948;5.922;2024-03-02T04:22:59;1.63;;;0.47;;
57567;SDS011;43403;51.948;5.922;2024-03-02T04:25:25;0.90;;;0.50;;
57567;SDS011;43403;51.948;5.922;2024-03-02T04:27:52;0.40;;;0.40;;
57567;SDS011;43403;51.948;5.922;2024-03-02T04:30:18;0.30;;;0.30;;
57567;SDS011;43403;51.948;5.922;2024-03-02T04:32:45;0.90;;;0.40;;
57567;SDS011;43403;51.948;5.922;2024-03-02T04:35:13;0.52;;;0.40;;
57567;SDS011;43403;51.948;5.922;2024-03-02T04:37:40;0.40;;;0.40;;
57567;SDS011;43403;51.948;5.922;2024-03-02T04:40:06;1.25;;;0.47;;
57567;SDS011;43403;51.948;5.922;2024-03-02T04:42:34;0.50;;;0.50;;
57567;SDS011;43403;51.948;5.922;2024-03-02T04:45:01;3.30;;;0.80;;
57567;SDS011;43403;51.948;5.922;2024-03-02T04:47:27;0.85;;;0.57;;
57567;SDS011;43403;51.948;5.922;2024-03-02T04:49:53;0.60;;;0.40;;
57567;SDS011;43403;51.948;5.922;2024-03-02T04:52:20;0.70;;;0.40;;
57567;SDS011;43403;51.948;5.922;2024-03-02T04:54:46;1.05;;;0.50;;
57567;SDS011;43403;51.948;5.922;2024-03-02T04:57:31;0.60;;;0.40;;
57567;SDS011;43403;51.948;5.922;2024-03-02T04:59:58;0.73;;;0.30;;
57567;SDS011;43403;51.948;5.922;2024-03-02T05:02:24;1.90;;;0.60;;
57567;SDS011;43403;51.948;5.922;2024-03-02T05:04:51;1.50;;;0.60;;
57567;SDS011;43403;51.948;5.922;2024-03-02T05:07:17;0.68;;;0.50;;
57567;SDS011;43403;51.948;5.922;2024-03-02T05:09:44;0.93;;;0.60;;
57567;SDS011;43403;51.948;5.922;2024-03-02T05:12:10;1.17;;;0.50;;
57567;SDS011;43403;51.948;5.922;2024-03-02T05:14:55;1.48;;;0.50;;
57567;SDS011;43403;51.948;5.922;2024-03-02T05:17:22;0.63;;;0.60;;
57567;SDS011;43403;51.948;5.922;2024-03-02T05:19:48;0.93;;;0.50;;
57567;SDS011;43403;51.948;5.922;2024-03-02T05:22:15;1.35;;;0.60;;
57567;SDS011;43403;51.948;5.922;2024-03-02T05:24:41;2.47;;;0.63;;
57567;SDS011;43403;51.948;5.922;2024-03-02T05:27:07;0.95;;;0.50;;
57567;SDS011;43403;51.948;5.922;2024-03-02T05:29:34;2.75;;;0.45;;
57567;SDS011;43403;51.948;5.922;2024-03-02T05:32:00;2.85;;;0.50;;
57567;SDS011;43403;51.948;5.922;2024-03-02T05:34:27;1.52;;;0.50;;
57567;SDS011;43403;51.948;5.922;2024-03-02T05:36:53;1.13;;;0.50;;
57567;SDS011;43403;51.948;5.922;2024-03-02T05:39:20;1.75;;;0.55;;
57567;SDS011;43403;51.948;5.922;2024-03-02T05:41:46;1.65;;;0.40;;
57567;SDS011;43403;51.948;5.922;2024-03-02T05:44:13;0.45;;;0.45;;
57567;SDS011;43403;51.948;5.922;2024-03-02T05:46:41;2.05;;;0.43;;
57567;SDS011;43403;51.948;5.922;2024-03-02T05:49:08;1.70;;;0.45;;
57567;SDS011;43403;51.948;5.922;2024-03-02T05:51:36;3.50;;;0.60;;
57567;SDS011;43403;51.948;5.922;2024-03-02T05:54:02;2.33;;;0.60;;
57567;SDS011;43403;51.948;5.922;2024-03-02T05:56:29;1.58;;;0.47;;
57567;SDS011;43403;51.948;5.922;2024-03-02T05:58:55;1.25;;;0.63;;
57567;SDS011;43403;51.948;5.922;2024-03-02T06:01:40;3.72;;;0.40;;
57567;SDS011;43403;51.948;5.922;2024-03-02T06:04:07;2.03;;;0.50;;
57567;SDS011;43403;51.948;5.922;2024-03-02T06:06:34;1.23;;;0.50;;
57567;SDS011;43403;51.948;5.922;2024-03-02T06:09:01;0.45;;;0.40;;
57567;SDS011;43403;51.948;5.922;2024-03-02T06:11:28;1.77;;;0.40;;
57567;SDS011;43403;51.948;5.922;2024-03-02T06:13:55;1.60;;;0.47;;
57567;SDS011;43403;51.948;5.922;2024-03-02T06:16:21;1.52;;;0.60;;
57567;SDS011;43403;51.948;5.922;2024-03-02T06:18:48;3.30;;;0.60;;
57567;SDS011;43403;51.948;5.922;2024-03-02T06:21:14;2.30;;;0.50;;
57567;SDS011;43403;51.948;5.922;2024-03-02T06:23:41;1.85;;;0.45;;
57567;SDS011;43403;51.948;5.922;2024-03-02T06:26:07;1.25;;;0.40;;
57567;SDS011;43403;51.948;5.922;2024-03-02T06:28:33;0.75;;;0.45;;
57567;SDS011;43403;51.948;5.922;2024-03-02T06:31:01;1.73;;;0.50;;
57567;SDS011;43403;51.948;5.922;2024-03-02T06:33:28;1.17;;;0.63;;
57567;SDS011;43403;51.948;5.922;2024-03-02T06:35:54;0.90;;;0.50;;
57567;SDS011;43403;51.948;5.922;2024-03-02T06:38:21;1.30;;;0.60;;
57567;SDS011;43403;51.948;5.922;2024-03-02T06:40:47;1.27;;;0.38;;
57567;SDS011;43403;51.948;5.922;2024-03-02T06:43:14;1.33;;;0.63;;
57567;SDS011;43403;51.948;5.922;2024-03-02T06:45:40;1.60;;;0.50;;
57567;SDS011;43403;51.948;5.922;2024-03-02T06:48:07;2.00;;;0.70;;
57567;SDS011;43403;51.948;5.922;2024-03-02T06:50:33;4.53;;;0.60;;
57567;SDS011;43403;51.948;5.922;2024-03-02T06:52:59;1.95;;;0.40;;
57567;SDS011;43403;51.948;5.922;2024-03-02T06:55:26;1.75;;;0.52;;
57567;SDS011;43403;51.948;5.922;2024-03-02T06:57:52;1.88;;;0.60;;
57567;SDS011;43403;51.948;5.922;2024-03-02T07:00:19;2.05;;;0.70;;
57567;SDS011;43403;51.948;5.922;2024-03-02T07:02:46;1.83;;;0.68;;
57567;SDS011;43403;51.948;5.922;2024-03-02T07:05:13;0.82;;;0.43;;
57567;SDS011;43403;51.948;5.922;2024-03-02T07:07:39;1.38;;;0.40;;
57567;SDS011;43403;51.948;5.922;2024-03-02T07:10:05;2.35;;;0.80;;
57567;SDS011;43403;51.948;5.922;2024-03-02T07:12:33;1.15;;;0.80;;
57567;SDS011;43403;51.948;5.922;2024-03-02T07:15:00;3.60;;;0.60;;
57567;SDS011;43403;51.948;5.922;2024-03-02T07:17:29;1.80;;;0.80;;
57567;SDS011;43403;51.948;5.922;2024-03-02T07:19:56;4.75;;;0.70;;
57567;SDS011;43403;51.948;5.922;2024-03-02T07:22:23;1.17;;;0.60;;
57567;SDS011;43403;51.948;5.922;2024-03-02T07:24:50;1.13;;;0.50;;
57567;SDS011;43403;51.948;5.922;2024-03-02T07:27:16;0.65;;;0.57;;
57567;SDS011;43403;51.948;5.922;2024-03-02T07:29:43;1.80;;;0.80;;
57567;SDS011;43403;51.948;5.922;2024-03-02T07:32:10;2.58;;;0.73;;
57567;SDS011;43403;51.948;5.922;2024-03-02T07:34:36;0.60;;;0.57;;
57567;SDS011;43403;51.948;5.922;2024-03-02T07:37:03;2.90;;;0.73;;
57567;SDS011;43403;51.948;5.922;2024-03-02T07:39:30;3.72;;;0.52;;
57567;SDS011;43403;51.948;5.922;2024-03-02T07:41:56;1.77;;;0.70;;
57567;SDS011;43403;51.948;5.922;2024-03-02T07:44:24;2.70;;;0.70;;
57567;SDS011;43403;51.948;5.922;2024-03-02T07:46:50;6.72;;;0.80;;
57567;SDS011;43403;51.948;5.922;2024-03-02T07:49:17;2.13;;;0.63;;
57567;SDS011;43403;51.948;5.922;2024-03-02T07:51:43;1.17;;;0.52;;
57567;SDS011;43403;51.948;5.922;2024-03-02T07:54:10;3.65;;;1.02;;
57567;SDS011;43403;51.948;5.922;2024-03-02T07:56:36;0.98;;;0.50;;
57567;SDS011;43403;51.948;5.922;2024-03-02T07:59:03;1.33;;;0.60;;
57567;SDS011;43403;51.948;5.922;2024-03-02T08:01:33;1.65;;;0.80;;
57567;SDS011;43403;51.948;5.922;2024-03-02T08:04:00;1.15;;;0.50;;
57567;SDS011;43403;51.948;5.922;2024-03-02T08:06:27;3.28;;;0.68;;
57567;SDS011;43403;51.948;5.922;2024-03-02T08:08:57;4.18;;;1.05;;
57567;SDS011;43403;51.948;5.922;2024-03-02T08:11:23;3.65;;;1.13;;
57567;SDS011;43403;51.948;5.922;2024-03-02T08:13:50;0.88;;;0.57;;
57567;SDS011;43403;51.948;5.922;2024-03-02T08:16:18;2.23;;;0.80;;
57567;SDS011;43403;51.948;5.922;2024-03-02T08:18:49;2.58;;;0.70;;
57567;SDS011;43403;51.948;5.922;2024-03-02T08:21:16;2.97;;;1.10;;
57567;SDS011;43403;51.948;5.922;2024-03-02T08:23:42;2.78;;;0.80;;
57567;SDS011;43403;51.948;5.922;2024-03-02T08:26:10;1.63;;;0.73;;
57567;SDS011;43403;51.948;5.922;2024-03-02T08:28:37;2.58;;;0.70;;
57567;SDS011;43403;51.948;5.922;2024-03-02T08:31:03;1.35;;;0.60;;
57567;SDS011;43403;51.948;5.922;2024-03-02T08:33:30;1.20;;;0.55;;
57567;SDS011;43403;51.948;5.922;2024-03-02T08:35:57;2.42;;;0.57;;
57567;SDS011;43403;51.948;5.922;2024-03-02T08:38:24;3.88;;;0.90;;
57567;SDS011;43403;51.948;5.922;2024-03-02T08:40:50;3.63;;;1.00;;
57567;SDS011;43403;51.948;5.922;2024-03-02T08:43:18;2.05;;;0.50;;
57567;SDS011;43403;51.948;5.922;2024-03-02T08:45:44;3.42;;;0.60;;
57567;SDS011;43403;51.948;5.922;2024-03-02T08:48:11;6.28;;;0.80;;
57567;SDS011;43403;51.948;5.922;2024-03-02T08:50:37;4.90;;;0.82;;
57567;SDS011;43403;51.948;5.922;2024-03-02T08:53:04;1.75;;;0.77;;
57567;SDS011;43403;51.948;5.922;2024-03-02T08:55:30;3.95;;;1.02;;
57567;SDS011;43403;51.948;5.922;2024-03-02T08:57:57;3.47;;;0.80;;
57567;SDS011;43403;51.948;5.922;2024-03-02T09:00:23;3.45;;;0.73;;
57567;SDS011;43403;51.948;5.922;2024-03-02T09:02:50;4.50;;;0.80;;
57567;SDS011;43403;51.948;5.922;2024-03-02T09:05:17;1.58;;;0.70;;
57567;SDS011;43403;51.948;5.922;2024-03-02T09:07:43;2.38;;;0.90;;
57567;SDS011;43403;51.948;5.922;2024-03-02T09:10:09;1.90;;;0.68;;
57567;SDS011;43403;51.948;5.922;2024-03-02T09:12:36;4.07;;;0.80;;
57567;SDS011;43403;51.948;5.922;2024-03-02T09:15:03;3.03;;;0.80;;
57567;SDS011;43403;51.948;5.922;2024-03-02T09:17:30;5.43;;;0.80;;
57567;SDS011;43403;51.948;5.922;2024-03-02T09:19:57;3.53;;;1.10;;
57567;SDS011;43403;51.948;5.922;2024-03-02T09:22:23;3.63;;;0.88;;
57567;SDS011;43403;51.948;5.922;2024-03-02T09:24:49;4.45;;;0.70;;
57567;SDS011;43403;51.948;5.922;2024-03-02T09:27:16;3.42;;;0.82;;
57567;SDS011;43403;51.948;5.922;2024-03-02T09:29:42;2.78;;;0.60;;
57567;SDS011;43403;51.948;5.922;2024-03-02T09:32:12;3.97;;;0.80;;
57567;SDS011;43403;51.948;5.922;2024-03-02T09:34:38;3.28;;;1.00;;
57567;SDS011;43403;51.948;5.922;2024-03-02T09:37:04;3.85;;;0.85;;
57567;SDS011;43403;51.948;5.922;2024-03-02T09:39:31;3.58;;;1.15;;
57567;SDS011;43403;51.948;5.922;2024-03-02T09:41:58;6.75;;;1.35;;
57567;SDS011;43403;51.948;5.922;2024-03-02T09:44:25;4.60;;;0.93;;
57567;SDS011;43403;51.948;5.922;2024-03-02T09:46:52;2.08;;;0.68;;
57567;SDS011;43403;51.948;5.922;2024-03-02T09:49:18;2.80;;;0.80;;
57567;SDS011;43403;51.948;5.922;2024-03-02T09:51:46;2.65;;;0.80;;
57567;SDS011;43403;51.948;5.922;2024-03-02T09:54:13;4.03;;;0.90;;
57567;SDS011;43403;51.948;5.922;2024-03-02T09:56:48;3.10;;;0.85;;
57567;SDS011;43403;51.948;5.922;2024-03-02T09:59:15;6.22;;;0.98;;
57567;SDS011;43403;51.948;5.922;2024-03-02T10:01:56;3.28;;;0.70;;
57567;SDS011;43403;51.948;5.922;2024-03-02T10:04:25;4.68;;;0.80;;
57567;SDS011;43403;51.948;5.922;2024-03-02T10:06:52;4.78;;;0.85;;
57567;SDS011;43403;51.948;5.922;2024-03-02T10:09:35;3.38;;;0.70;;
57567;SDS011;43403;51.948;5.922;2024-03-02T10:12:03;3.38;;;0.70;;
57567;SDS011;43403;51.948;5.922;2024-03-02T10:14:29;5.45;;;1.40;;
57567;SDS011;43403;51.948;5.922;2024-03-02T10:17:01;5.03;;;0.75;;
57567;SDS011;43403;51.948;5.922;2024-03-02T10:19:28;2.70;;;0.73;;
57567;SDS011;43403;51.948;5.922;2024-03-02T10:21:59;3.80;;;0.70;;
57567;SDS011;43403;51.948;5.922;2024-03-02T10:24:41;2.05;;;0.60;;
57567;SDS011;43403;51.948;5.922;2024-03-02T10:27:14;4.57;;;1.00;;
57567;SDS011;43403;51.948;5.922;2024-03-02T10:29:41;5.13;;;0.50;;
57567;SDS011;43403;51.948;5.922;2024-03-02T10:32:10;1.13;;;0.40;;
57567;SDS011;43403;51.948;5.922;2024-03-02T10:34:41;3.25;;;0.60;;
57567;SDS011;43403;51.948;5.922;2024-03-02T10:37:08;1.27;;;0.50;;
57567;SDS011;43403;51.948;5.922;2024-03-02T10:39:35;2.75;;;0.82;;
57567;SDS011;43403;51.948;5.922;2024-03-02T10:42:07;1.35;;;0.52;;
57567;SDS011;43403;51.948;5.922;2024-03-02T10:44:33;2.28;;;0.70;;
57567;SDS011;43403;51.948;5.922;2024-03-02T10:47:01;1.55;;;0.57;;
57567;SDS011;43403;51.948;5.922;2024-03-02T10:49:30;2.70;;;0.60;;
57567;SDS011;43403;51.948;5.922;2024-03-02T10:51:58;3.72;;;0.70;;
57567;SDS011;43403;51.948;5.922;2024-03-02T10:54:24;3.83;;;0.85;;
57567;SDS011;43403;51.948;5.922;2024-03-02T10:56:56;2.55;;;0.60;;
57567;SDS011;43403;51.948;5.922;2024-03-02T10:59:26;2.92;;;0.63;;
57567;SDS011;43403;51.948;5.922;2024-03-02T11:01:58;5.38;;;0.68;;
57567;SDS011;43403;51.948;5.922;2024-03-02T11:04:31;5.38;;;0.70;;
57567;SDS011;43403;51.948;5.922;2024-03-02T11:07:08;1.75;;;0.50;;
57567;SDS011;43403;51.948;5.922;2024-03-02T11:09:44;1.85;;;0.80;;
57567;SDS011;43403;51.948;5.922;2024-03-02T11:12:21;3.25;;;1.00;;
57567;SDS011;43403;51.948;5.922;2024-03-02T11:14:49;1.63;;;0.60;;
57567;SDS011;43403;51.948;5.922;2024-03-02T11:17:18;3.97;;;0.85;;
57567;SDS011;43403;51.948;5.922;2024-03-02T11:19:44;1.58;;;0.63;;
57567;SDS011;43403;51.948;5.922;2024-03-02T11:22:12;4.63;;;1.33;;
57567;SDS011;43403;51.948;5.922;2024-03-02T11:24:38;1.95;;;0.90;;
57567;SDS011;43403;51.948;5.922;2024-03-02T11:27:05;3.00;;;0.90;;
57567;SDS011;43403;51.948;5.922;2024-03-02T11:32:04;2.83;;;0.63;;
57567;SDS011;43403;51.948;5.922;2024-03-02T11:34:34;2.85;;;0.52;;
57567;SDS011;43403;51.948;5.922;2024-03-02T11:37:01;4.85;;;0.98;;
57567;SDS011;43403;51.948;5.922;2024-03-02T11:39:28;2.72;;;0.93;;
57567;SDS011;43403;51.948;5.922;2024-03-02T11:41:55;1.90;;;1.08;;
57567;SDS011;43403;51.948;5.922;2024-03-02T11:44:22;3.50;;;0.68;;
57567;SDS011;43403;51.948;5.922;2024-03-02T11:46:52;1.67;;;0.73;;
57567;SDS011;43403;51.948;5.922;2024-03-02T11:49:38;2.65;;;0.70;;
57567;SDS011;43403;51.948;5.922;2024-03-02T11:52:06;2.25;;;0.80;;
57567;SDS011;43403;51.948;5.922;2024-03-02T11:54:39;3.80;;;1.25;;
57567;SDS011;43403;51.948;5.922;2024-03-02T11:57:09;4.55;;;1.20;;
57567;SDS011;43403;51.948;5.922;2024-03-02T11:59:35;1.70;;;0.68;;
57567;SDS011;43403;51.948;5.922;2024-03-02T12:02:01;1.98;;;0.60;;
57567;SDS011;43403;51.948;5.922;2024-03-02T12:04:29;2.70;;;0.73;;
57567;SDS011;43403;51.948;5.922;2024-03-02T12:06:59;4.38;;;0.93;;
57567;SDS011;43403;51.948;5.922;2024-03-02T12:09:27;3.00;;;0.68;;
57567;SDS011;43403;51.948;5.922;2024-03-02T12:14:30;2.38;;;0.70;;
57567;SDS011;43403;51.948;5.922;2024-03-02T12:16:56;3.53;;;1.05;;
57567;SDS011;43403;51.948;5.922;2024-03-02T12:19:25;2.72;;;0.73;;
57567;SDS011;43403;51.948;5.922;2024-03-02T12:21:52;2.27;;;0.60;;
57567;SDS011;43403;51.948;5.922;2024-03-02T12:24:20;2.53;;;0.60;;
57567;SDS011;43403;51.948;5.922;2024-03-02T12:26:47;2.20;;;0.60;;
57567;SDS011;43403;51.948;5.922;2024-03-02T12:29:14;5.30;;;0.75;;
57567;SDS011;43403;51.948;5.922;2024-03-02T12:31:44;2.15;;;0.68;;
57567;SDS011;43403;51.948;5.922;2024-03-02T12:34:12;2.03;;;0.70;;
57567;SDS011;43403;51.948;5.922;2024-03-02T12:36:40;4.72;;;0.90;;
57567;SDS011;43403;51.948;5.922;2024-03-02T12:39:08;2.50;;;0.60;;
57567;SDS011;43403;51.948;5.922;2024-03-02T12:41:37;2.03;;;0.70;;
57567;SDS011;43403;51.948;5.922;2024-03-02T12:44:04;1.65;;;0.73;;
57567;SDS011;43403;51.948;5.922;2024-03-02T12:46:31;3.50;;;0.90;;
57567;SDS011;43403;51.948;5.922;2024-03-02T12:48:58;2.42;;;0.73;;
57567;SDS011;43403;51.948;5.922;2024-03-02T12:51:25;3.00;;;0.77;;
57567;SDS011;43403;51.948;5.922;2024-03-02T12:53:55;1.55;;;0.65;;
57567;SDS011;43403;51.948;5.922;2024-03-02T12:56:22;3.17;;;0.80;;
57567;SDS011;43403;51.948;5.922;2024-03-02T12:58:53;2.65;;;0.90;;
57567;SDS011;43403;51.948;5.922;2024-03-02T13:01:19;3.10;;;0.77;;
57567;SDS011;43403;51.948;5.922;2024-03-02T13:03:49;3.33;;;0.80;;
57567;SDS011;43403;51.948;5.922;2024-03-02T13:06:18;1.85;;;0.70;;
57567;SDS011;43403;51.948;5.922;2024-03-02T13:08:46;3.03;;;0.88;;
57567;SDS011;43403;51.948;5.922;2024-03-02T13:11:15;2.55;;;0.82;;
57567;SDS011;43403;51.948;5.922;2024-03-02T13:13:42;2.75;;;1.00;;
57567;SDS011;43403;51.948;5.922;2024-03-02T13:16:12;1.70;;;0.90;;
57567;SDS011;43403;51.948;5.922;2024-03-02T13:18:44;2.70;;;1.08;;
57567;SDS011;43403;51.948;5.922;2024-03-02T13:21:11;2.30;;;1.08;;
57567;SDS011;43403;51.948;5.922;2024-03-02T13:23:38;2.58;;;1.00;;
57567;SDS011;43403;51.948;5.922;2024-03-02T13:26:04;3.90;;;0.90;;
57567;SDS011;43403;51.948;5.922;2024-03-02T13:28:31;2.70;;;0.90;;
57567;SDS011;43403;51.948;5.922;2024-03-02T13:30:57;3.83;;;1.17;;
57567;SDS011;43403;51.948;5.922;2024-03-02T13:33:24;3.10;;;0.95;;
57567;SDS011;43403;51.948;5.922;2024-03-02T13:35:51;2.95;;;1.00;;
57567;SDS011;43403;51.948;5.922;2024-03-02T13:38:18;3.58;;;1.25;;
57567;SDS011;43403;51.948;5.922;2024-03-02T13:40:45;4.10;;;1.10;;
57567;SDS011;43403;51.948;5.922;2024-03-02T13:43:12;4.65;;;1.35;;
57567;SDS011;43403;51.948;5.922;2024-03-02T13:45:38;1.80;;;0.90;;
57567;SDS011;43403;51.948;5.922;2024-03-02T13:48:05;2.53;;;0.90;;
57567;SDS011;43403;51.948;5.922;2024-03-02T13:50:32;2.45;;;1.00;;
57567;SDS011;43403;51.948;5.922;2024-03-02T13:52:58;3.47;;;1.00;;
57567;SDS011;43403;51.948;5.922;2024-03-02T13:55:25;2.85;;;1.17;;
57567;SDS011;43403;51.948;5.922;2024-03-02T13:57:51;4.38;;;1.15;;
57567;SDS011;43403;51.948;5.922;2024-03-02T14:00:18;1.88;;;0.90;;
57567;SDS011;43403;51.948;5.922;2024-03-02T14:02:45;6.10;;;1.83;;
57567;SDS011;43403;51.948;5.922;2024-03-02T14:05:11;2.83;;;0.80;;
57567;SDS011;43403;51.948;5.922;2024-03-02T14:07:43;3.15;;;0.88;;
57567;SDS011;43403;51.948;5.922;2024-03-02T14:10:10;2.33;;;0.90;;
57567;SDS011;43403;51.948;5.922;2024-03-02T14:12:37;4.13;;;1.02;;
57567;SDS011;43403;51.948;5.922;2024-03-02T14:15:03;3.63;;;1.13;;
57567;SDS011;43403;51.948;5.922;2024-03-02T14:17:30;3.00;;;0.82;;
57567;SDS011;43403;51.948;5.922;2024-03-02T14:19:59;3.20;;;1.02;;
57567;SDS011;43403;51.948;5.922;2024-03-02T14:22:26;4.07;;;1.10;;
57567;SDS011;43403;51.948;5.922;2024-03-02T14:24:52;5.07;;;0.85;;
57567;SDS011;43403;51.948;5.922;2024-03-02T14:27:18;4.18;;;1.00;;
57567;SDS011;43403;51.948;5.922;2024-03-02T14:30:03;5.80;;;1.08;;
57567;SDS011;43403;51.948;5.922;2024-03-02T14:32:31;3.83;;;0.98;;
57567;SDS011;43403;51.948;5.922;2024-03-02T14:34:58;4.57;;;0.90;;
57567;SDS011;43403;51.948;5.922;2024-03-02T14:37:24;2.40;;;0.80;;
57567;SDS011;43403;51.948;5.922;2024-03-02T14:39:51;3.60;;;0.80;;
57567;SDS011;43403;51.948;5.922;2024-03-02T14:42:17;2.80;;;0.98;;
57567;SDS011;43403;51.948;5.922;2024-03-02T14:44:44;3.60;;;0.80;;
57567;SDS011;43403;51.948;5.922;2024-03-02T14:47:10;3.17;;;1.25;;
57567;SDS011;43403;51.948;5.922;2024-03-02T14:49:36;3.42;;;0.88;;
57567;SDS011;43403;51.948;5.922;2024-03-02T14:52:06;2.05;;;0.70;;
57567;SDS011;43403;51.948;5.922;2024-03-02T14:54:33;2.92;;;0.90;;
57567;SDS011;43403;51.948;5.922;2024-03-02T14:57:01;2.05;;;0.70;;